createdAt,value
2023-04-23T00:00:49.363Z,13.49
2023-04-23T00:05:52.740Z,13.60
2023-04-23T00:10:56.756Z,13.75
2023-04-23T00:15:59.162Z,13.87
2023-04-23T00:21:01.347Z,13.91
2023-04-23T00:26:05.295Z,14.02
2023-04-23T00:31:07.730Z,14.00
2023-04-23T00:36:10.008Z,13.99
2023-04-23T00:41:14.503Z,14.02
2023-04-23T00:46:17.905Z,13.98
2023-04-23T00:51:21.244Z,13.84
2023-04-23T00:56:25.411Z,13.65
2023-04-23T01:01:27.639Z,13.49
2023-04-23T01:06:30.711Z,13.34
2023-04-23T01:11:34.540Z,13.25
2023-04-23T01:16:36.521Z,13.16
2023-04-23T01:21:40.453Z,13.04
2023-04-23T01:26:44.266Z,12.99
2023-04-23T01:31:47.236Z,12.77
2023-04-23T01:36:50.045Z,12.58
2023-04-23T01:41:54.220Z,12.29
2023-04-23T01:46:56.349Z,12.22
2023-04-23T01:51:58.424Z,12.16
2023-04-23T01:57:01.927Z,12.27
2023-04-23T02:02:03.804Z,12.32
2023-04-23T02:07:05.781Z,12.31
2023-04-23T02:12:09.167Z,12.34
2023-04-23T02:17:11.147Z,12.36
2023-04-23T02:22:13.351Z,12.36
2023-04-23T02:27:16.793Z,12.43
2023-04-23T02:32:18.567Z,12.33
2023-04-23T02:37:20.780Z,12.34
2023-04-23T02:42:24.559Z,12.31
2023-04-23T02:47:26.735Z,12.31
2023-04-23T02:52:28.934Z,12.32
2023-04-23T02:57:32.791Z,12.32
2023-04-23T03:02:35.142Z,12.29
2023-04-23T03:07:37.495Z,12.22
2023-04-23T03:12:40.552Z,12.25
2023-04-23T03:17:42.729Z,12.15
2023-04-23T03:22:44.852Z,12.11
2023-04-23T03:27:47.892Z,12.11
2023-04-23T03:32:50.625Z,12.11
2023-04-23T03:37:53.136Z,12.11
2023-04-23T03:42:56.684Z,12.08
2023-04-23T03:47:58.701Z,12.04
2023-04-23T03:53:01.205Z,12.15
2023-04-23T03:58:04.247Z,12.16
2023-04-23T04:03:06.467Z,12.19
2023-04-23T04:08:08.592Z,12.22
2023-04-23T04:13:12.110Z,12.24
2023-04-23T04:18:14.254Z,12.23
2023-04-23T04:23:16.488Z,12.31
2023-04-23T04:28:19.995Z,12.26
2023-04-23T04:33:22.149Z,12.30
2023-04-23T04:38:24.284Z,12.31
2023-04-23T04:43:27.787Z,12.34
2023-04-23T04:48:29.900Z,12.38
2023-04-23T04:53:31.954Z,12.45
2023-04-23T04:58:35.499Z,12.48
2023-04-23T05:03:37.891Z,12.55
2023-04-23T05:08:40.175Z,12.59
2023-04-23T05:13:44.323Z,12.68
2023-04-23T05:18:46.394Z,12.70
2023-04-23T05:23:48.743Z,12.72
2023-04-23T05:28:52.074Z,12.82
2023-04-23T05:33:53.937Z,12.93
2023-04-23T05:38:55.576Z,13.08
2023-04-23T05:43:59.187Z,13.22
2023-04-23T05:49:01.590Z,13.34
2023-04-23T05:54:03.752Z,13.41
2023-04-23T05:59:07.218Z,13.48
2023-04-23T06:04:09.098Z,13.69
2023-04-23T06:09:11.162Z,13.78
2023-04-23T06:14:14.207Z,13.90
2023-04-23T06:19:16.360Z,13.71
2023-04-23T06:24:18.058Z,13.53
2023-04-23T06:29:21.516Z,13.37
2023-04-23T06:34:23.616Z,13.30
2023-04-23T06:39:25.373Z,13.29
2023-04-23T06:44:29.102Z,13.22
2023-04-23T06:49:31.304Z,13.15
2023-04-23T06:54:32.976Z,13.10
2023-04-23T06:59:36.072Z,13.05
2023-04-23T07:04:37.896Z,13.14
2023-04-23T07:09:40.014Z,13.16
2023-04-23T07:14:43.516Z,13.20
2023-04-23T07:19:45.884Z,13.25
2023-04-23T07:24:47.674Z,13.20
2023-04-23T07:29:51.737Z,13.21
2023-04-23T07:34:53.977Z,13.24
2023-04-23T07:39:56.245Z,13.21
2023-04-23T07:45:00.010Z,13.18
2023-04-23T07:50:01.681Z,13.33
2023-04-23T07:55:04.296Z,13.43
2023-04-23T08:00:09.075Z,13.66
2023-04-23T08:05:11.626Z,13.90
2023-04-23T08:10:13.845Z,13.85
2023-04-23T08:15:17.166Z,14.20
2023-04-23T08:20:19.109Z,14.74
2023-04-23T08:25:21.129Z,14.86
2023-04-23T08:30:24.629Z,14.46
2023-04-23T08:35:26.832Z,14.28
2023-04-23T08:40:31.241Z,14.32
2023-04-23T08:45:36.927Z,14.08
2023-04-23T08:50:42.951Z,13.99
2023-04-23T08:55:46.171Z,13.58
2023-04-23T09:00:49.656Z,13.49
2023-04-23T09:05:51.899Z,13.36
2023-04-23T09:10:57.781Z,13.37
2023-04-23T09:16:01.392Z,13.31
2023-04-23T09:21:04.728Z,13.39
2023-04-23T09:26:07.377Z,13.22
2023-04-23T09:31:11.038Z,13.21
2023-04-23T09:36:15.492Z,13.08
2023-04-23T09:41:20.830Z,13.27
2023-04-23T09:46:39.167Z,13.31
2023-04-23T09:51:42.529Z,13.65
2023-04-23T09:56:48.820Z,13.48
2023-04-23T10:01:53.003Z,13.71
2023-04-23T10:12:00.865Z,14.35
2023-04-23T10:17:04.909Z,14.65
2023-04-23T10:32:30.651Z,14.46
2023-04-23T10:37:33.431Z,14.23
2023-04-23T10:42:35.688Z,13.81
2023-04-23T10:47:38.957Z,13.60
2023-04-23T10:52:43.254Z,13.42
2023-04-23T10:58:02.915Z,13.77
2023-04-23T11:03:26.488Z,13.21
2023-04-23T11:08:29.546Z,13.20
2023-04-23T11:13:31.239Z,12.93
2023-04-23T11:18:55.140Z,12.96
2023-04-23T11:23:57.381Z,13.50
2023-04-23T11:28:59.596Z,14.92
2023-04-23T11:34:03.549Z,15.87
2023-04-23T11:39:05.270Z,16.16
2023-04-23T11:44:07.136Z,16.66
2023-04-23T11:49:10.591Z,18.23
2023-04-23T11:54:13.920Z,17.69
2023-04-23T11:59:15.717Z,17.85
2023-04-23T12:04:21.012Z,18.39
2023-04-23T12:09:24.769Z,18.60
2023-04-23T12:14:28.684Z,18.41
2023-04-23T12:19:31.992Z,18.71
2023-04-23T12:24:46.938Z,17.79
2023-04-23T12:29:49.148Z,18.83
2023-04-23T12:34:56.143Z,19.31
2023-04-23T12:39:58.322Z,18.87
2023-04-23T12:45:06.393Z,19.08
2023-04-23T12:50:11.217Z,19.10
2023-04-23T12:55:13.323Z,18.83
2023-04-23T13:00:15.928Z,18.01
2023-04-23T13:05:18.972Z,17.47
2023-04-23T13:10:20.902Z,18.24
2023-04-23T13:15:22.660Z,19.18
2023-04-23T13:20:26.166Z,18.32
2023-04-23T13:25:28.259Z,17.77
2023-04-23T13:30:30.522Z,17.24
2023-04-23T13:35:33.623Z,18.62
2023-04-23T13:40:36.280Z,19.03
2023-04-23T13:45:38.062Z,19.12
2023-04-23T13:50:41.522Z,19.24
2023-04-23T13:55:43.282Z,18.50
2023-04-23T14:00:45.488Z,19.22
2023-04-23T14:05:49.026Z,18.82
2023-04-23T14:10:51.610Z,19.70
2023-04-23T14:15:53.909Z,20.86
2023-04-23T14:20:57.208Z,20.87
2023-04-23T14:26:04.429Z,21.30
2023-04-23T14:31:07.342Z,21.07
2023-04-23T14:36:10.648Z,20.29
2023-04-23T14:41:12.403Z,20.43
2023-04-23T14:46:14.912Z,21.10
2023-04-23T14:51:18.273Z,20.95
2023-04-23T14:56:20.245Z,21.14
2023-04-23T15:01:22.113Z,20.64
2023-04-23T15:06:25.583Z,20.66
2023-04-23T15:11:27.414Z,21.53
2023-04-23T15:16:40.446Z,21.30
2023-04-23T15:21:51.050Z,20.88
2023-04-23T15:26:53.217Z,20.32
2023-04-23T15:31:55.609Z,19.84
2023-04-23T15:36:59.203Z,19.78
2023-04-23T15:42:00.886Z,19.89
2023-04-23T15:47:03.079Z,19.95
2023-04-23T15:52:06.938Z,19.36
2023-04-23T15:57:08.957Z,18.65
2023-04-23T16:02:11.078Z,18.32
2023-04-23T16:07:14.606Z,18.87
2023-04-23T16:12:16.612Z,19.00
2023-04-23T16:17:18.840Z,19.48
2023-04-23T16:22:22.388Z,20.05
2023-04-23T16:27:24.687Z,19.50
2023-04-23T16:32:26.450Z,19.25
2023-04-23T16:37:29.611Z,18.61
2023-04-23T16:42:31.969Z,18.14
2023-04-23T16:47:34.168Z,17.92
2023-04-23T16:52:37.774Z,17.66
2023-04-23T16:57:39.592Z,17.47
2023-04-23T17:02:42.051Z,17.36
2023-04-23T17:07:45.739Z,17.38
2023-04-23T17:12:47.925Z,17.90
2023-04-23T17:17:49.778Z,18.26
2023-04-23T17:22:53.198Z,18.29
2023-04-23T17:27:54.901Z,18.45
2023-04-23T17:32:56.731Z,18.27
2023-04-23T17:38:00.287Z,18.12
2023-04-23T17:43:02.005Z,17.76
2023-04-23T17:48:04.542Z,17.42
2023-04-23T17:53:08.125Z,17.00
2023-04-23T17:58:09.943Z,16.62
2023-04-23T18:03:11.943Z,16.25
2023-04-23T18:08:15.232Z,15.90
2023-04-23T18:13:17.643Z,15.49
2023-04-23T18:18:20.070Z,15.15
2023-04-23T18:23:23.577Z,14.81
2023-04-23T18:28:25.849Z,14.39
2023-04-23T18:33:31.253Z,14.02
2023-04-23T18:38:42.729Z,13.79
2023-04-23T18:43:44.799Z,13.61
2023-04-23T18:48:51.683Z,13.51
2023-04-23T18:53:55.722Z,13.39
2023-04-23T18:58:57.567Z,13.21
2023-04-23T19:03:59.871Z,12.98
2023-04-23T19:09:03.240Z,12.74
2023-04-23T19:14:05.246Z,12.67
2023-04-23T19:19:07.233Z,12.57
2023-04-23T19:24:10.937Z,12.38
2023-04-23T19:29:13.147Z,12.44
2023-04-23T19:34:15.188Z,12.21
2023-04-23T19:39:18.452Z,12.03
2023-04-23T19:44:20.218Z,11.94
2023-04-23T19:49:22.037Z,11.74
2023-04-23T19:54:25.973Z,11.62
2023-04-23T19:59:27.738Z,11.49
2023-04-23T20:04:29.679Z,11.36
2023-04-23T20:09:33.268Z,11.25
2023-04-23T20:14:35.037Z,11.15
2023-04-23T20:19:37.495Z,11.18
2023-04-23T20:24:40.603Z,11.21
2023-04-23T20:29:42.496Z,11.24
2023-04-23T20:34:44.567Z,11.24
2023-04-23T20:39:47.707Z,11.16
2023-04-23T20:44:49.354Z,11.19
2023-04-23T20:49:51.199Z,10.97
2023-04-23T20:54:54.652Z,10.76
2023-04-23T20:59:56.794Z,10.62
2023-04-23T21:04:58.609Z,10.66
2023-04-23T21:10:01.732Z,10.68
2023-04-23T21:15:04.525Z,10.71
2023-04-23T21:20:07.919Z,10.72
2023-04-23T21:25:11.640Z,10.70
2023-04-23T21:30:20.366Z,10.59
2023-04-23T21:35:22.446Z,10.49
2023-04-23T21:40:26.135Z,10.43
2023-04-23T21:45:28.071Z,10.34
2023-04-23T21:50:30.865Z,10.21
2023-04-23T21:55:34.658Z,10.06
2023-04-23T22:00:37.068Z,9.86
2023-04-23T22:05:38.821Z,9.70
2023-04-23T22:10:41.893Z,9.60
2023-04-23T22:15:43.872Z,9.49
2023-04-23T22:20:45.646Z,9.55
2023-04-23T22:25:49.170Z,9.73
2023-04-23T22:30:50.888Z,9.91
2023-04-23T22:35:52.673Z,10.17
2023-04-23T22:40:55.757Z,10.27
2023-04-23T22:45:57.557Z,10.26
2023-04-23T22:50:59.272Z,10.30
2023-04-23T22:56:02.830Z,10.26
2023-04-23T23:01:04.756Z,10.18
2023-04-23T23:06:06.538Z,10.07
2023-04-23T23:11:10.020Z,9.90
2023-04-23T23:16:12.030Z,9.76
2023-04-23T23:21:14.260Z,9.71
2023-04-23T23:26:18.045Z,9.60
2023-04-23T23:31:20.313Z,9.46
2023-04-23T23:36:22.151Z,9.39
2023-04-23T23:41:26.141Z,9.24
2023-04-23T23:46:27.942Z,9.24
2023-04-23T23:51:29.845Z,9.22
2023-04-23T23:56:33.284Z,9.29
